Time;durP1;ratioP1;P1;durP2;ratioP2;P2;SDS_P1;SDS_P2;PMS_P1;PMS_P2;Temp;Humidity;BMP_temperature;BMP_pressure;BME280_temperature;BME280_humidity;BME280_pressure;Samples;Min_cycle;Max_cycle;Signal;HPM_P1;HPM_P2
2022/08/15 00:01:28;;;;;;;4.77;4.47;;;24.00;68.00;;;;;;5005652;28;20549;-61
2022/08/15 00:03:57;;;;;;;4.70;4.30;;;24.00;68.20;;;;;;5012245;28;20429;-60
2022/08/15 00:06:36;;;;;;;4.47;4.00;;;24.00;68.00;;;;;;4997429;28;20472;-60
2022/08/15 00:09:06;;;;;;;6.20;4.83;;;24.00;67.90;;;;;;5010942;28;20603;-60
2022/08/15 00:11:38;;;;;;;5.03;4.63;;;23.80;68.40;;;;;;5010796;28;20437;-60
2022/08/15 00:14:14;;;;;;;4.87;4.57;;;23.80;67.70;;;;;;5012935;28;20441;-60
2022/08/15 00:16:42;;;;;;;5.03;4.63;;;23.70;69.40;;;;;;4999692;28;20959;-60
2022/08/15 00:19:21;;;;;;;7.03;4.30;;;23.70;70.80;;;;;;5008892;28;20457;-61
2022/08/15 00:21:52;;;;;;;4.27;3.97;;;23.70;72.00;;;;;;5009944;28;20461;-60
2022/08/15 00:24:23;;;;;;;5.33;4.83;;;23.70;74.10;;;;;;4999650;28;20434;-61
2022/08/15 00:26:54;;;;;;;4.37;4.10;;;23.70;75.10;;;;;;5011763;28;20496;-62
2022/08/15 00:29:21;;;;;;;5.30;4.90;;;23.80;73.20;;;;;;5011399;28;20460;-61
2022/08/15 00:31:47;;;;;;;5.03;4.53;;;23.70;74.70;;;;;;5011720;28;20459;-60
2022/08/15 00:34:16;;;;;;;4.63;4.23;;;23.70;73.00;;;;;;5010997;28;20441;-60
2022/08/15 00:36:42;;;;;;;4.90;4.60;;;23.70;73.20;;;;;;5010004;28;21047;-60
2022/08/15 00:39:08;;;;;;;4.93;4.63;;;23.70;73.10;;;;;;5010766;28;20978;-60
2022/08/15 00:41:40;;;;;;;5.00;4.50;;;23.70;72.70;;;;;;5011182;28;20465;-60
2022/08/15 00:44:29;;;;;;;5.17;4.73;;;23.70;71.90;;;;;;5008332;28;20445;-61
2022/08/15 00:47:00;;;;;;;5.83;4.60;;;23.80;71.80;;;;;;5004572;28;20472;-61
2022/08/15 00:49:29;;;;;;;5.60;5.00;;;23.70;71.80;;;;;;5021131;28;20457;-60
2022/08/15 00:52:24;;;;;;;4.60;4.30;;;23.70;71.90;;;;;;5008111;28;20445;-61
2022/08/15 00:54:57;;;;;;;4.53;4.17;;;23.70;72.90;;;;;;5010910;28;20437;-63
2022/08/15 00:57:28;;;;;;;6.37;5.13;;;23.80;72.30;;;;;;5010491;28;20865;-61
2022/08/15 00:59:58;;;;;;;4.90;4.50;;;23.80;71.90;;;;;;5009689;28;20515;-60
2022/08/15 01:02:29;;;;;;;4.60;4.30;;;23.80;72.20;;;;;;5009842;28;20480;-60
2022/08/15 01:04:55;;;;;;;4.60;4.30;;;23.90;72.10;;;;;;5014695;28;20431;-60
2022/08/15 01:07:22;;;;;;;5.33;4.80;;;24.00;72.00;;;;;;5001756;28;20525;-59
2022/08/15 01:09:49;;;;;;;5.90;5.40;;;24.00;72.50;;;;;;5004592;28;20448;-60
2022/08/15 01:12:18;;;;;;;5.13;4.60;;;23.80;72.90;;;;;;5010893;28;20437;-61
2022/08/15 01:14:48;;;;;;;4.87;4.57;;;23.60;74.30;;;;;;5010783;28;20425;-62
2022/08/15 01:17:15;;;;;;;5.23;4.83;;;23.60;73.80;;;;;;5010987;28;20920;-61
2022/08/15 01:19:45;;;;;;;5.70;5.33;;;23.60;73.80;;;;;;5010065;28;20487;-62
2022/08/15 01:22:30;;;;;;;5.00;4.60;;;23.60;74.10;;;;;;5005726;28;20902;-60
2022/08/15 01:25:23;;;;;;;5.50;5.10;;;23.60;74.10;;;;;;5008900;28;20422;-60
2022/08/15 01:28:01;;;;;;;5.10;4.70;;;23.70;74.40;;;;;;4998036;28;20460;-62
2022/08/15 01:30:32;;;;;;;4.60;4.30;;;23.70;74.60;;;;;;5010249;28;20450;-62
2022/08/15 01:32:58;;;;;;;4.73;4.43;;;23.60;75.00;;;;;;5007378;28;20441;-62
2022/08/15 01:35:25;;;;;;;5.40;4.90;;;23.60;75.50;;;;;;5009251;28;20499;-62
2022/08/15 01:37:51;;;;;;;5.17;4.80;;;23.60;75.60;;;;;;5009251;28;20468;-62
2022/08/15 01:40:27;;;;;;;5.07;4.67;;;23.50;76.20;;;;;;5009619;28;20433;-62
2022/08/15 01:42:56;;;;;;;5.07;4.77;;;23.40;76.70;;;;;;5009014;28;20572;-62
2022/08/15 01:45:26;;;;;;;6.93;5.40;;;23.40;77.20;;;;;;5010036;28;20449;-62
2022/08/15 01:47:54;;;;;;;4.77;4.37;;;23.30;77.80;;;;;;5010674;28;20452;-62
2022/08/15 01:50:26;;;;;;;5.47;4.97;;;23.30;79.60;;;;;;5007213;28;20444;-62
2022/08/15 01:53:09;;;;;;;5.53;5.07;;;23.30;79.50;;;;;;5014917;28;20434;-61
2022/08/15 01:55:53;;;;;;;4.60;4.30;;;23.20;80.50;;;;;;5011558;28;20931;-62
2022/08/15 01:58:20;;;;;;;5.40;4.90;;;23.70;82.60;;;;;;5009734;28;20457;-62
2022/08/15 02:00:56;;;;;;;5.67;5.13;;;23.10;82.30;;;;;;5013879;28;20894;-60
2022/08/15 02:03:33;;;;;;;5.30;4.53;;;23.10;84.50;;;;;;5009612;28;20456;-62
2022/08/15 02:06:09;;;;;;;5.10;4.70;;;23.00;85.30;;;;;;5010491;28;20516;-61
2022/08/15 02:08:36;;;;;;;4.50;4.10;;;23.00;86.20;;;;;;5009751;28;20544;-62
2022/08/15 02:11:06;;;;;;;4.50;4.10;;;22.90;88.00;;;;;;5010028;28;20442;-61
2022/08/15 02:13:32;;;;;;;5.10;4.70;;;23.00;87.90;;;;;;5010757;28;20852;-61
2022/08/15 02:16:00;;;;;;;5.33;4.93;;;22.90;88.40;;;;;;5009178;28;20477;-62
2022/08/15 02:18:27;;;;;;;5.07;4.63;;;23.40;89.20;;;;;;5020048;28;20203;-60
2022/08/15 02:20:54;;;;;;;5.73;4.63;;;23.00;89.40;;;;;;5012734;28;20990;-62
2022/08/15 02:23:20;;;;;;;4.50;4.10;;;22.90;90.00;;;;;;5009976;28;21041;-62
2022/08/15 02:25:50;;;;;;;5.20;4.70;;;22.90;90.20;;;;;;5014236;28;20516;-62
2022/08/15 02:28:16;;;;;;;5.13;3.87;;;22.90;90.20;;;;;;5020761;28;20454;-62
2022/08/15 02:30:42;;;;;;;4.90;4.30;;;22.90;90.40;;;;;;5012041;28;20858;-62
2022/08/15 02:33:08;;;;;;;4.80;3.90;;;22.90;90.40;;;;;;5014000;28;20434;-62
2022/08/15 02:35:34;;;;;;;4.37;4.03;;;22.90;90.50;;;;;;5015134;28;20930;-62
2022/08/15 02:38:03;;;;;;;4.80;4.40;;;22.90;90.70;;;;;;5017860;28;20202;-62
2022/08/15 02:40:29;;;;;;;6.00;4.07;;;22.90;90.70;;;;;;5011000;28;20175;-61
2022/08/15 02:42:56;;;;;;;5.10;4.70;;;22.90;90.80;;;;;;5007848;28;20430;-61
2022/08/15 02:45:21;;;;;;;4.47;4.07;;;22.90;91.00;;;;;;5013383;28;20449;-62
2022/08/15 02:47:47;;;;;;;5.67;4.87;;;22.90;91.10;;;;;;5013460;28;20457;-62
2022/08/15 02:50:15;;;;;;;5.00;4.60;;;22.90;91.10;;;;;;5022226;28;20183;-62
2022/08/15 02:52:43;;;;;;;4.67;4.27;;;22.90;91.10;;;;;;5012987;28;20199;-62
2022/08/15 02:55:11;;;;;;;6.20;3.80;;;22.90;91.20;;;;;;5013682;28;20441;-61
2022/08/15 02:57:37;;;;;;;6.80;4.00;;;22.90;91.40;;;;;;5011631;28;20832;-60
2022/08/15 03:00:11;;;;;;;5.07;4.53;;;22.70;91.70;;;;;;5012515;28;20433;-61
2022/08/15 03:03:02;;;;;;;4.73;4.30;;;22.70;92.10;;;;;;5009773;28;20883;-61
2022/08/15 03:05:29;;;;;;;4.00;3.70;;;22.60;92.40;;;;;;5011664;28;20434;-60
2022/08/15 03:07:55;;;;;;;4.30;3.97;;;22.70;92.50;;;;;;5012249;28;20801;-61
2022/08/15 03:10:21;;;;;;;4.43;4.00;;;22.60;92.50;;;;;;5016496;28;20798;-60
2022/08/15 03:12:59;;;;;;;5.03;3.97;;;22.60;92.80;;;;;;5012709;28;20446;-60
2022/08/15 03:15:37;;;;;;;4.40;4.10;;;22.60;92.90;;;;;;5013151;28;20807;-59
2022/08/15 03:18:02;;;;;;;4.73;4.30;;;22.60;93.10;;;;;;5006662;28;20981;-59
2022/08/15 03:20:28;;;;;;;4.37;4.07;;;22.60;93.20;;;;;;5012179;28;20433;-60
2022/08/15 03:22:54;;;;;;;4.70;4.37;;;22.50;93.30;;;;;;5012494;28;20280;-60
2022/08/15 03:25:21;;;;;;;4.40;3.83;;;22.50;93.30;;;;;;5013384;28;20183;-60
2022/08/15 03:27:47;;;;;;;5.30;4.23;;;22.50;93.40;;;;;;5012403;28;20207;-61
2022/08/15 03:30:14;;;;;;;4.03;3.60;;;22.40;93.50;;;;;;5015338;28;20553;-61
2022/08/15 03:32:49;;;;;;;4.13;3.60;;;22.40;93.50;;;;;;5011773;28;20442;-60
2022/08/15 03:35:16;;;;;;;4.53;3.53;;;22.40;93.70;;;;;;5012849;28;20435;-60
2022/08/15 03:37:42;;;;;;;5.37;3.97;;;22.30;94.00;;;;;;5012362;28;21540;-59
2022/08/15 03:40:09;;;;;;;5.43;4.30;;;22.30;94.40;;;;;;5010989;28;20503;-60
2022/08/15 03:42:34;;;;;;;4.13;3.73;;;22.20;94.80;;;;;;5009766;28;21009;-60
2022/08/15 03:45:02;;;;;;;5.40;3.90;;;22.10;95.30;;;;;;5012601;28;20465;-60
2022/08/15 03:47:29;;;;;;;3.67;3.37;;;22.10;95.70;;;;;;5011620;28;20195;-60
2022/08/15 03:49:56;;;;;;;4.00;3.70;;;22.00;96.00;;;;;;5012354;28;20429;-60
2022/08/15 03:52:21;;;;;;;7.67;4.00;;;21.90;96.60;;;;;;5011548;28;20442;-60
2022/08/15 03:54:47;;;;;;;5.13;3.87;;;21.80;96.90;;;;;;5013646;28;20436;-59
2022/08/15 03:57:13;;;;;;;4.53;4.13;;;21.80;97.30;;;;;;5010928;28;20277;-59
2022/08/15 03:59:38;;;;;;;3.67;3.37;;;21.90;97.30;;;;;;5010080;28;20284;-60
2022/08/15 04:02:11;;;;;;;4.90;3.77;;;21.90;97.30;;;;;;5011326;28;20473;-61
2022/08/15 04:04:37;;;;;;;4.63;3.50;;;21.80;97.30;;;;;;5012515;28;20203;-60
2022/08/15 04:07:03;;;;;;;3.90;3.50;;;21.80;97.30;;;;;;5010706;28;20469;-60
2022/08/15 04:09:29;;;;;;;4.23;3.83;;;21.80;97.50;;;;;;5011915;28;20691;-59
2022/08/15 04:11:55;;;;;;;3.67;3.33;;;21.80;97.70;;;;;;5012978;28;20476;-59
2022/08/15 04:14:21;;;;;;;3.90;3.60;;;21.80;97.70;;;;;;5011889;28;20978;-60
2022/08/15 04:16:47;;;;;;;3.80;3.50;;;21.80;97.80;;;;;;5008858;28;20186;-60
2022/08/15 04:19:15;;;;;;;4.10;3.70;;;21.80;97.90;;;;;;5010445;28;21295;-59
2022/08/15 04:21:41;;;;;;;3.20;3.00;;;21.30;97.70;;;;;;5010208;28;20301;-60
2022/08/15 04:24:07;;;;;;;3.60;3.30;;;21.70;97.70;;;;;;5011589;28;20488;-59
2022/08/15 04:26:34;;;;;;;3.60;3.10;;;21.80;97.60;;;;;;5011864;28;20465;-59
2022/08/15 04:28:59;;;;;;;3.47;3.17;;;21.70;97.40;;;;;;5014443;28;20206;-59
2022/08/15 04:31:25;;;;;;;3.70;3.20;;;21.60;97.50;;;;;;5006677;28;20446;-59
2022/08/15 04:33:50;;;;;;;3.23;2.83;;;21.60;97.50;;;;;;5007657;28;20610;-59
2022/08/15 04:36:18;;;;;;;2.93;2.73;;;21.60;97.10;;;;;;5011622;28;20190;-59
2022/08/15 04:38:45;;;;;;;3.20;2.90;;;21.60;97.00;;;;;;5001102;28;20703;-59
2022/08/15 04:41:12;;;;;;;3.45;3.13;;;21.50;97.10;;;;;;5007358;28;20526;-60
2022/08/15 04:43:40;;;;;;;3.08;2.70;;;21.60;97.10;;;;;;5011560;28;20612;-60
2022/08/15 04:46:07;;;;;;;4.23;2.97;;;21.50;97.00;;;;;;5011454;28;20174;-60
2022/08/15 04:48:33;;;;;;;4.13;3.22;;;21.50;97.30;;;;;;5011376;28;20974;-60
2022/08/15 04:50:59;;;;;;;5.63;3.40;;;21.40;97.50;;;;;;5004146;28;20190;-61
2022/08/15 04:53:28;;;;;;;5.67;2.87;;;21.50;97.80;;;;;;4996789;28;20275;-60
2022/08/15 04:55:55;;;;;;;5.47;3.40;;;21.40;97.90;;;;;;5008834;28;20460;-60
2022/08/15 04:58:21;;;;;;;3.42;3.13;;;21.40;98.10;;;;;;5009243;28;20461;-60
2022/08/15 05:01:04;;;;;;;3.50;3.20;;;21.40;98.20;;;;;;5009932;28;20182;-60
2022/08/15 05:03:30;;;;;;;3.45;2.90;;;21.40;98.20;;;;;;5004745;28;20536;-60
2022/08/15 05:05:59;;;;;;;3.47;2.95;;;21.30;98.40;;;;;;5010482;28;20232;-61
2022/08/15 05:08:27;;;;;;;4.10;3.80;;;21.30;98.50;;;;;;5007700;28;20692;-60
2022/08/15 05:10:58;;;;;;;3.72;3.10;;;21.30;98.60;;;;;;5010510;28;20636;-60
2022/08/15 05:13:26;;;;;;;3.67;3.37;;;21.30;98.70;;;;;;5010307;28;20195;-60
2022/08/15 05:15:53;;;;;;;4.55;3.53;;;21.30;98.60;;;;;;5007378;28;20876;-60
2022/08/15 05:18:19;;;;;;;3.88;3.55;;;21.30;98.70;;;;;;5010356;28;20207;-61
2022/08/15 05:20:45;;;;;;;3.20;3.00;;;21.30;98.60;;;;;;5010617;28;20289;-62
2022/08/15 05:23:16;;;;;;;3.47;3.17;;;21.30;98.50;;;;;;5003986;28;20524;-65
2022/08/15 05:25:45;;;;;;;4.55;2.97;;;21.30;98.40;;;;;;5009322;28;20182;-61
2022/08/15 05:28:13;;;;;;;3.85;3.45;;;21.30;98.30;;;;;;5010291;28;20210;-58
2022/08/15 05:30:39;;;;;;;5.90;3.40;;;21.30;98.30;;;;;;5003172;28;20190;-64
2022/08/15 05:33:11;;;;;;;3.35;2.78;;;21.30;98.30;;;;;;5004245;28;20891;-65
2022/08/15 05:35:41;;;;;;;2.97;2.70;;;21.20;98.20;;;;;;5006306;28;20270;-64
2022/08/15 05:38:09;;;;;;;3.00;2.80;;;21.30;98.40;;;;;;5005317;28;20206;-63
2022/08/15 05:40:50;;;;;;;3.67;2.43;;;21.30;98.50;;;;;;5006697;28;20213;-65
2022/08/15 05:43:30;;;;;;;3.03;2.77;;;21.20;98.70;;;;;;5008894;28;21022;-64
2022/08/15 05:46:19;;;;;;;3.00;2.55;;;21.20;99.00;;;;;;5001057;28;20872;-65
2022/08/15 05:48:53;;;;;;;3.17;2.97;;;21.10;99.50;;;;;;5004392;28;20269;-65
2022/08/15 05:51:50;;;;;;;3.85;2.70;;;21.10;99.60;;;;;;5006185;28;21003;-64
2022/08/15 05:54:30;;;;;;;2.43;2.30;;;21.00;99.70;;;;;;5010628;28;20186;-64
2022/08/15 05:57:15;;;;;;;2.90;2.60;;;21.00;99.80;;;;;;5007175;28;20449;-68
2022/08/15 05:59:46;;;;;;;3.35;3.05;;;21.00;99.80;;;;;;5010775;28;20237;-67
2022/08/15 06:02:26;;;;;;;4.37;2.90;;;21.10;99.80;;;;;;5011557;28;20256;-68
2022/08/15 06:05:23;;;;;;;3.10;2.80;;;20.80;99.20;;;;;;5010008;28;20480;-68
2022/08/15 06:07:50;;;;;;;3.00;2.70;;;21.20;99.10;;;;;;5009103;28;20245;-68
2022/08/15 06:10:36;;;;;;;2.70;2.50;;;21.30;98.90;;;;;;5008168;28;20441;-69
2022/08/15 06:13:22;;;;;;;2.77;2.57;;;21.40;98.60;;;;;;5008163;28;21020;-68
2022/08/15 06:16:01;;;;;;;3.13;2.80;;;21.40;98.50;;;;;;5008662;28;20441;-68
2022/08/15 06:18:29;;;;;;;3.35;3.13;;;21.40;98.60;;;;;;5022069;28;20466;-68
2022/08/15 06:21:04;;;;;;;3.43;3.13;;;21.40;98.50;;;;;;5012593;28;20235;-69
2022/08/15 06:23:29;;;;;;;4.70;2.67;;;21.50;98.70;;;;;;5011024;28;20437;-69
2022/08/15 06:26:11;;;;;;;3.70;3.40;;;21.60;98.80;;;;;;5005118;28;20516;-68
2022/08/15 06:29:08;;;;;;;3.10;2.80;;;21.50;99.50;;;;;;5010425;28;20195;-69
2022/08/15 06:31:41;;;;;;;4.27;3.17;;;21.60;99.50;;;;;;5011612;28;20878;-68
2022/08/15 06:34:23;;;;;;;7.13;2.70;;;21.70;99.00;;;;;;5011435;28;20436;-70
2022/08/15 06:37:12;;;;;;;3.40;2.40;;;21.70;98.20;;;;;;5008611;28;20437;-70
2022/08/15 06:39:48;;;;;;;4.00;3.10;;;21.80;98.20;;;;;;5011605;28;20445;-69
2022/08/15 06:42:21;;;;;;;5.37;3.37;;;21.80;98.50;;;;;;5010832;28;20464;-70
2022/08/15 06:44:51;;;;;;;3.57;2.90;;;21.90;98.10;;;;;;5013916;28;20791;-69
2022/08/15 06:47:19;;;;;;;2.83;2.53;;;22.00;97.70;;;;;;5008022;28;20508;-69
2022/08/15 06:49:51;;;;;;;5.13;4.00;;;22.10;97.20;;;;;;5005870;28;20453;-69
2022/08/15 06:52:18;;;;;;;3.67;2.90;;;22.30;96.90;;;;;;5012534;28;20803;-71
2022/08/15 06:54:44;;;;;;;4.53;2.87;;;22.50;96.00;;;;;;5010324;28;20429;-70
2022/08/15 06:57:21;;;;;;;2.77;2.57;;;22.60;95.80;;;;;;5026706;28;20507;-69
2022/08/15 07:00:23;;;;;;;2.70;2.40;;;22.80;94.80;;;;;;5010442;28;20453;-71
2022/08/15 07:03:09;;;;;;;5.83;2.93;;;23.00;94.50;;;;;;5012663;28;20469;-70
2022/08/15 07:05:48;;;;;;;4.60;3.80;;;23.30;93.70;;;;;;5010848;28;20430;-71
2022/08/15 07:08:26;;;;;;;4.10;3.70;;;23.60;92.90;;;;;;5010881;28;20496;-70
2022/08/15 07:11:09;;;;;;;2.87;2.67;;;23.80;92.30;;;;;;5012650;28;20479;-70
2022/08/15 07:14:04;;;;;;;4.00;2.80;;;23.90;91.60;;;;;;5009814;28;20450;-70
2022/08/15 07:16:52;;;;;;;2.80;2.60;;;24.30;91.30;;;;;;5010185;28;20949;-70
2022/08/15 07:19:18;;;;;;;6.33;3.40;;;25.10;89.70;;;;;;5005209;28;20452;-69
2022/08/15 07:21:43;;;;;;;6.73;6.20;;;26.40;86.10;;;;;;5009014;28;20467;-70
2022/08/15 07:24:15;;;;;;;3.40;2.60;;;28.60;77.00;;;;;;5010752;28;20179;-69
2022/08/15 07:26:54;;;;;;;2.63;2.43;;;31.00;68.30;;;;;;5009724;28;20288;-69
2022/08/15 07:29:27;;;;;;;2.97;2.67;;;33.50;58.10;;;;;;5012365;28;20532;-68
2022/08/15 07:32:20;;;;;;;2.87;2.57;;;34.40;53.50;;;;;;5008842;28;20450;-70
2022/08/15 07:35:03;;;;;;;2.50;2.27;;;34.40;50.80;;;;;;5011435;28;20447;-71
2022/08/15 07:37:32;;;;;;;2.77;2.40;;;34.20;51.50;;;;;;5010757;28;20430;-69
2022/08/15 07:40:22;;;;;;;2.60;2.37;;;34.40;50.50;;;;;;5007789;28;20436;-70
2022/08/15 07:42:48;;;;;;;2.23;2.10;;;35.40;48.60;;;;;;5006039;28;20472;-70
2022/08/15 07:45:39;;;;;;;3.30;2.60;;;36.90;45.80;;;;;;5011264;28;20436;-69
2022/08/15 07:48:29;;;;;;;3.20;2.23;;;36.80;43.70;;;;;;5004270;28;20955;-70
2022/08/15 07:51:15;;;;;;;2.20;2.10;;;36.50;43.70;;;;;;5009769;28;20434;-70
2022/08/15 07:54:00;;;;;;;2.50;2.03;;;34.70;45.70;;;;;;5012170;28;20540;-69
2022/08/15 07:56:29;;;;;;;2.50;2.30;;;33.40;48.70;;;;;;5017567;28;20429;-69
2022/08/15 07:59:13;;;;;;;2.30;2.20;;;32.60;49.60;;;;;;5019447;28;20448;-70
2022/08/15 08:01:39;;;;;;;2.47;2.27;;;31.00;52.20;;;;;;5008242;28;20519;-69
2022/08/15 08:04:13;;;;;;;3.50;2.83;;;30.40;54.30;;;;;;5013502;28;20584;-70
2022/08/15 08:07:05;;;;;;;2.23;2.13;;;29.70;55.60;;;;;;5007668;28;21061;-69
2022/08/15 08:09:37;;;;;;;2.23;2.10;;;29.40;57.30;;;;;;5013929;28;20824;-71
2022/08/15 08:12:17;;;;;;;2.17;1.97;;;29.20;57.80;;;;;;5004816;28;20858;-71
2022/08/15 08:15:02;;;;;;;3.73;2.10;;;29.80;57.30;;;;;;5011483;28;20434;-71
2022/08/15 08:17:53;;;;;;;2.67;2.40;;;32.10;53.20;;;;;;5012488;28;20453;-69
2022/08/15 08:20:51;;;;;;;3.20;2.27;;;33.70;50.20;;;;;;4981500;28;20438;-70
2022/08/15 08:23:38;;;;;;;2.20;2.00;;;35.00;47.00;;;;;;5006225;28;20443;-72
2022/08/15 08:26:26;;;;;;;2.23;2.03;;;34.90;45.90;;;;;;5014361;28;20425;-69
2022/08/15 08:29:14;;;;;;;2.63;2.40;;;36.00;44.40;;;;;;5018601;28;20514;-70
2022/08/15 08:31:58;;;;;;;1.97;1.87;;;36.80;42.80;;;;;;5008307;28;20947;-69
2022/08/15 08:34:45;;;;;;;1.87;1.77;;;36.80;41.60;;;;;;5006467;28;20421;-70
2022/08/15 08:37:26;;;;;;;2.60;2.40;;;37.00;41.10;;;;;;5011370;28;20536;-70
2022/08/15 08:43:39;;;;;;;2.13;1.87;;;35.60;41.70;;;;;;4941473;28;20954;-70
2022/08/15 08:46:07;;;;;;;3.20;2.20;;;34.20;44.50;;;;;;5004233;28;20429;-70
2022/08/15 08:48:38;;;;;;;2.70;2.50;;;34.20;45.40;;;;;;5022048;28;20487;-70
2022/08/15 08:51:14;;;;;;;2.07;1.97;;;34.30;45.20;;;;;;5011611;28;20415;-70
2022/08/15 08:54:01;;;;;;;2.13;1.93;;;35.40;42.90;;;;;;5005945;28;20469;-70
2022/08/15 08:56:39;;;;;;;2.67;2.47;;;34.60;43.10;;;;;;5010373;28;20525;-68
2022/08/15 08:59:08;;;;;;;2.73;2.20;;;32.90;44.40;;;;;;5011319;28;20448;-71
2022/08/15 09:01:36;;;;;;;2.77;2.00;;;31.30;47.60;;;;;;5009956;28;20476;-69
2022/08/15 09:04:09;;;;;;;2.10;2.00;;;31.30;48.60;;;;;;5009658;28;20553;-69
2022/08/15 09:06:42;;;;;;;4.07;2.50;;;30.90;49.00;;;;;;5010195;28;20439;-68
2022/08/15 09:09:23;;;;;;;2.70;2.50;;;30.40;50.10;;;;;;5011160;28;20991;-69
2022/08/15 09:15:10;;;;;;;2.20;2.10;;;30.50;50.30;;;;;;5002670;28;20516;-69
2022/08/15 09:17:38;;;;;;;2.37;2.10;;;30.00;51.60;;;;;;5008475;28;20800;-68
2022/08/15 09:20:09;;;;;;;1.93;1.83;;;30.10;51.10;;;;;;5009629;28;20433;-68
2022/08/15 09:22:35;;;;;;;2.40;2.17;;;30.60;51.20;;;;;;5005775;28;20967;-69
2022/08/15 09:25:01;;;;;;;3.30;2.40;;;31.70;49.30;;;;;;5003932;28;20552;-68
2022/08/15 09:27:39;;;;;;;2.20;2.03;;;32.40;47.60;;;;;;5006863;28;20956;-69
2022/08/15 09:30:09;;;;;;;2.37;2.17;;;31.60;48.60;;;;;;5005628;28;20187;-69
2022/08/15 09:32:56;;;;;;;1.93;1.83;;;31.90;47.50;;;;;;5010599;28;20509;-68
2022/08/15 09:36:05;;;;;;;2.40;2.20;;;32.50;45.90;;;;;;5009087;28;20426;-68
2022/08/15 09:38:31;;;;;;;3.60;3.37;;;31.80;46.50;;;;;;5001372;28;20468;-68
2022/08/15 09:41:31;;;;;;;2.60;2.40;;;31.20;48.20;;;;;;5009665;28;20489;-68
2022/08/15 09:44:20;;;;;;;2.40;2.30;;;31.00;49.00;;;;;;5009582;28;20226;-70
2022/08/15 09:47:17;;;;;;;3.20;2.90;;;30.60;49.40;;;;;;5009586;28;20460;-69
2022/08/15 09:49:57;;;;;;;2.60;2.40;;;30.20;51.60;;;;;;5006832;28;20491;-68
2022/08/15 09:52:58;;;;;;;3.30;2.93;;;29.90;52.80;;;;;;5009585;28;20433;-68
2022/08/15 09:55:44;;;;;;;2.70;2.17;;;30.00;52.70;;;;;;5005932;28;20445;-69
2022/08/15 09:58:26;;;;;;;3.00;2.20;;;30.30;50.80;;;;;;5008959;28;20453;-70
2022/08/15 10:01:14;;;;;;;3.23;2.20;;;30.00;50.40;;;;;;5009372;28;20442;-69
2022/08/15 10:03:46;;;;;;;2.13;2.00;;;30.90;48.40;;;;;;5009863;28;20865;-69
2022/08/15 10:06:15;;;;;;;2.20;2.10;;;30.90;48.80;;;;;;5009699;28;20428;-69
2022/08/15 10:08:53;;;;;;;2.90;2.70;;;31.20;48.00;;;;;;5008727;28;20506;-71
2022/08/15 10:11:38;;;;;;;3.90;2.97;;;31.50;48.00;;;;;;5005049;28;21220;-68
2022/08/15 10:14:07;;;;;;;2.80;2.60;;;31.10;50.10;;;;;;5010238;28;20437;-70
2022/08/15 10:16:41;;;;;;;2.87;2.67;;;29.80;51.40;;;;;;5009399;28;20511;-69
2022/08/15 10:19:29;;;;;;;2.37;2.20;;;29.80;52.30;;;;;;5006025;28;20570;-69
2022/08/15 10:22:00;;;;;;;3.00;2.67;;;29.70;52.20;;;;;;5000598;28;20496;-70
2022/08/15 10:24:32;;;;;;;2.67;2.40;;;30.00;52.30;;;;;;5006801;28;20426;-70
2022/08/15 10:27:09;;;;;;;2.40;2.30;;;29.60;52.00;;;;;;5010595;28;20810;-69
2022/08/15 10:29:47;;;;;;;2.80;2.60;;;29.50;52.20;;;;;;5005971;28;21030;-71
2022/08/15 10:32:28;;;;;;;2.87;2.60;;;29.40;52.60;;;;;;5002837;28;20471;-70
2022/08/15 10:35:30;;;;;;;2.50;2.30;;;29.30;51.90;;;;;;5010117;28;20480;-69
2022/08/15 10:38:00;;;;;;;2.43;2.23;;;29.30;51.30;;;;;;4999761;28;20459;-68
2022/08/15 10:40:37;;;;;;;3.90;2.67;;;29.30;51.60;;;;;;5009468;28;20435;-69
2022/08/15 10:43:32;;;;;;;3.10;2.90;;;29.30;53.30;;;;;;5020929;28;20459;-71
2022/08/15 10:46:19;;;;;;;3.80;3.00;;;29.10;54.20;;;;;;5012977;28;20506;-69
2022/08/15 10:49:15;;;;;;;3.70;2.97;;;28.70;55.00;;;;;;5008671;28;20794;-70
2022/08/15 10:52:01;;;;;;;4.13;2.90;;;28.40;55.50;;;;;;5009266;28;20531;-68
2022/08/15 10:54:45;;;;;;;3.33;3.13;;;28.50;55.60;;;;;;5006884;28;20446;-69
2022/08/15 10:57:16;;;;;;;3.73;2.53;;;28.50;54.80;;;;;;5002956;28;20440;-69
2022/08/15 10:59:45;;;;;;;3.10;2.47;;;28.50;54.40;;;;;;5010679;28;21018;-72
2022/08/15 11:02:20;;;;;;;2.40;2.30;;;28.50;54.50;;;;;;5013349;28;20962;-70
2022/08/15 11:04:46;;;;;;;2.83;2.60;;;28.50;54.70;;;;;;5006279;28;20437;-70
2022/08/15 11:07:16;;;;;;;3.90;2.93;;;28.40;54.50;;;;;;5005407;28;20464;-69
2022/08/15 11:09:42;;;;;;;5.40;4.57;;;28.60;53.90;;;;;;5008061;28;20451;-70
2022/08/15 11:12:08;;;;;;;2.50;2.30;;;28.90;53.90;;;;;;5013478;28;21159;-70
2022/08/15 11:14:39;;;;;;;2.60;2.40;;;29.10;53.60;;;;;;5011511;28;20281;-71
2022/08/15 11:17:14;;;;;;;3.20;2.90;;;29.50;53.10;;;;;;5010930;28;20436;-68
2022/08/15 11:19:46;;;;;;;2.60;2.40;;;29.50;52.60;;;;;;5012577;28;20449;-69
2022/08/15 11:22:19;;;;;;;3.53;3.23;;;29.50;52.70;;;;;;5000011;28;20461;-70
2022/08/15 11:24:57;;;;;;;4.17;2.80;;;29.30;52.90;;;;;;5013640;28;20468;-70
2022/08/15 11:27:25;;;;;;;4.50;3.00;;;29.30;52.60;;;;;;5011052;28;20985;-70
2022/08/15 11:29:54;;;;;;;3.40;3.20;;;29.40;52.60;;;;;;5011689;28;20436;-70
2022/08/15 11:32:28;;;;;;;2.40;2.30;;;29.20;52.80;;;;;;5012454;28;20430;-71
2022/08/15 11:34:54;;;;;;;2.47;2.37;;;29.20;52.50;;;;;;5012380;28;20444;-70
2022/08/15 11:37:26;;;;;;;2.80;2.60;;;29.00;52.20;;;;;;5011549;28;20930;-68
2022/08/15 11:39:58;;;;;;;2.73;2.53;;;28.80;51.60;;;;;;5009784;28;20492;-70
2022/08/15 11:42:25;;;;;;;2.80;2.60;;;29.00;52.10;;;;;;5012406;28;20946;-70
2022/08/15 11:45:15;;;;;;;3.10;2.70;;;29.10;51.70;;;;;;5010271;28;20538;-70
2022/08/15 11:47:47;;;;;;;2.57;2.40;;;29.20;51.70;;;;;;5011174;28;20472;-70
2022/08/15 11:50:24;;;;;;;3.20;2.60;;;29.00;52.20;;;;;;5010066;28;20425;-70
2022/08/15 11:52:54;;;;;;;2.57;2.33;;;29.00;51.70;;;;;;5008546;28;20442;-68
2022/08/15 11:55:26;;;;;;;3.27;2.80;;;29.30;51.80;;;;;;5006795;28;20855;-70
2022/08/15 11:57:55;;;;;;;2.83;2.63;;;29.10;52.40;;;;;;5010424;28;20445;-69
2022/08/15 12:00:43;;;;;;;2.50;2.40;;;29.10;52.80;;;;;;5012127;28;20435;-68
2022/08/15 12:03:25;;;;;;;3.30;3.00;;;29.30;52.50;;;;;;5020254;28;20465;-71
2022/08/15 12:06:14;;;;;;;3.70;2.50;;;29.90;51.90;;;;;;5010569;28;20443;-70
2022/08/15 12:08:42;;;;;;;2.77;2.53;;;30.30;50.80;;;;;;5012887;28;20533;-70
2022/08/15 12:11:14;;;;;;;3.67;2.53;;;30.00;51.00;;;;;;5004121;28;20448;-70
2022/08/15 12:13:58;;;;;;;3.20;2.90;;;30.20;50.90;;;;;;5009900;28;20516;-69
2022/08/15 12:16:38;;;;;;;2.70;2.50;;;30.20;50.40;;;;;;5007867;28;20838;-69
2022/08/15 12:19:35;;;;;;;2.80;2.67;;;30.30;50.10;;;;;;5024961;28;20918;-69
2022/08/15 12:22:13;;;;;;;2.63;2.43;;;30.10;49.70;;;;;;5009768;28;20463;-70
2022/08/15 12:24:45;;;;;;;3.97;3.57;;;29.90;49.70;;;;;;5007323;28;20436;-70
2022/08/15 12:27:13;;;;;;;3.03;2.83;;;29.50;49.90;;;;;;5026136;28;20467;-70
2022/08/15 12:29:39;;;;;;;2.60;2.40;;;29.20;50.10;;;;;;5019297;28;20459;-70
2022/08/15 12:32:09;;;;;;;2.73;2.53;;;29.20;50.40;;;;;;5000111;28;20473;-72
2022/08/15 12:34:39;;;;;;;2.90;2.70;;;29.40;49.50;;;;;;5012855;28;20430;-71
2022/08/15 12:37:08;;;;;;;3.90;2.70;;;29.40;49.20;;;;;;5005784;28;20449;-69
2022/08/15 12:39:45;;;;;;;3.17;2.87;;;29.40;49.20;;;;;;5010953;28;21117;-69
2022/08/15 12:42:15;;;;;;;2.77;2.57;;;29.40;49.60;;;;;;5009703;28;20464;-70
2022/08/15 12:44:45;;;;;;;4.43;2.50;;;29.60;49.70;;;;;;5012210;28;20773;-70
2022/08/15 12:47:10;;;;;;;3.00;2.80;;;29.70;49.90;;;;;;5010580;28;21092;-71
2022/08/15 12:49:36;;;;;;;2.97;2.77;;;29.80;50.10;;;;;;5020726;28;20460;-71
2022/08/15 12:52:02;;;;;;;5.77;3.07;;;29.70;50.00;;;;;;5008310;28;20188;-71
2022/08/15 12:54:27;;;;;;;2.70;2.50;;;29.70;50.30;;;;;;5010506;28;20193;-70
2022/08/15 12:56:53;;;;;;;3.20;2.97;;;29.60;51.00;;;;;;5010004;28;20461;-71
2022/08/15 12:59:19;;;;;;;3.30;2.53;;;29.40;52.20;;;;;;5010191;28;20206;-70
2022/08/15 13:01:47;;;;;;;3.13;2.80;;;29.50;52.10;;;;;;5015849;28;20467;-70
2022/08/15 13:04:15;;;;;;;3.13;2.87;;;29.40;51.80;;;;;;5015485;28;20186;-70
2022/08/15 13:07:06;;;;;;;3.50;3.20;;;29.30;51.70;;;;;;5020573;28;20503;-70
2022/08/15 13:09:32;;;;;;;3.30;3.00;;;29.20;51.90;;;;;;5003191;28;20526;-70
2022/08/15 13:12:01;;;;;;;2.70;2.50;;;29.10;52.60;;;;;;5009880;28;20448;-70
2022/08/15 13:14:29;;;;;;;3.20;3.00;;;29.00;51.80;;;;;;5009801;28;20536;-70
2022/08/15 13:16:56;;;;;;;3.60;3.30;;;28.90;52.10;;;;;;5003952;28;20490;-69
2022/08/15 13:19:31;;;;;;;5.50;4.43;;;28.70;52.60;;;;;;5009931;28;20448;-69
2022/08/15 13:24:42;;;;;;;4.30;4.00;;;28.80;53.20;;;;;;5010226;28;20454;-70
2022/08/15 13:27:08;;;;;;;6.80;3.80;;;28.90;52.50;;;;;;5007931;28;20795;-71
2022/08/15 13:29:35;;;;;;;3.80;3.40;;;29.00;51.90;;;;;;5008719;28;20201;-70
2022/08/15 13:32:03;;;;;;;6.10;5.70;;;28.90;51.90;;;;;;5008439;28;20441;-69